Terminal Aerodrome Forecast
Issued by NWS

Home | Current Version | Previous Version | Text Only | Print | Product List | Glossary Off
Versions: 1 2 3 4 5 6 7 8 9 10 11 12 13 14 15 16 17 18 19 20 21

000
FTUS42 KMHX 150100 AAA
TAFISO
TAF AMD
KISO 150126Z 1501/1524 18010KT P6SM VCSH SCT007 BKN020
     FM150700 18010G15KT 5SM -RA SCT007 OVC020
     FM151300 19014G20KT P6SM BKN025
     FM151900 20015G22KT P6SM -RA VCTS SCT007 BKN025CB
      AMD LTD TO CLD VIS AND WIND=

USA.gov is the U.S. government's official web portal to all federal, state and local government web resources and services.